Time;durP1;ratioP1;P1;durP2;ratioP2;P2;SDS_P1;SDS_P2;PMS_P1;PMS_P2;Temp;Humidity;BMP_temperature;BMP_pressure;BME280_temperature;BME280_humidity;BME280_pressure;Samples;Min_cycle;Max_cycle;Signal;HPM_P1;HPM_P2
2022/07/15 00:01:51;;;;;;;5.07;3.83;;;;;;;20.39;87.81;99504.66;5091845;28;20050;-80
2022/07/15 00:04:17;;;;;;;4.25;3.70;;;;;;;20.46;86.71;99509.75;5078222;28;20374;-80
2022/07/15 00:06:42;;;;;;;6.38;3.95;;;;;;;20.46;86.76;99501.31;5065481;28;20051;-80
2022/07/15 00:09:08;;;;;;;5.85;3.88;;;;;;;20.52;85.58;99506.16;5099251;28;20038;-80
2022/07/15 00:11:34;;;;;;;5.47;3.60;;;;;;;20.50;84.62;99501.06;5099372;28;20426;-80
2022/07/15 00:14:00;;;;;;;5.22;3.75;;;;;;;20.51;85.82;99507.44;5078373;28;20123;-83
2022/07/15 00:16:26;;;;;;;5.10;4.10;;;;;;;20.36;88.04;99500.06;5098691;28;20036;-82
2022/07/15 00:18:51;;;;;;;6.60;4.00;;;;;;;20.33;89.11;99503.16;5099908;28;20136;-83
2022/07/15 00:21:16;;;;;;;5.35;4.13;;;;;;;20.20;90.26;99492.41;5117220;27;20188;-83
2022/07/15 00:23:43;;;;;;;4.93;4.03;;;;;;;20.09;91.59;99503.72;5099655;28;20055;-83
2022/07/15 00:26:08;;;;;;;6.22;4.20;;;;;;;20.11;90.47;99506.75;5115845;28;20046;-83
2022/07/15 00:28:34;;;;;;;6.70;3.70;;;;;;;20.21;89.59;99515.72;5098579;28;20032;-83
2022/07/15 00:31:00;;;;;;;5.22;3.90;;;;;;;20.22;90.74;99543.34;5097662;28;20073;-83
2022/07/15 00:33:26;;;;;;;5.75;4.07;;;;;;;19.91;94.13;99602.75;5115614;28;20420;-83
2022/07/15 00:35:51;;;;;;;8.60;3.88;;;;;;;19.64;94.55;99617.59;5115827;28;20039;-83
2022/07/15 00:38:17;;;;;;;6.32;4.10;;;;;;;19.91;92.33;99594.31;5097442;28;20038;-83
2022/07/15 00:40:45;;;;;;;6.78;4.07;;;;;;;20.02;90.86;99622.47;5064456;28;20128;-83
2022/07/15 00:43:11;;;;;;;4.80;4.30;;;;;;;20.13;90.72;99639.38;5096452;28;20047;-83
2022/07/15 00:45:36;;;;;;;5.20;4.15;;;;;;;20.26;88.77;99600.16;5091419;28;20035;-83
2022/07/15 00:48:02;;;;;;;6.72;4.00;;;;;;;20.37;87.30;99585.34;5076140;28;20032;-83
2022/07/15 00:50:29;;;;;;;6.50;4.03;;;;;;;20.50;86.69;99604.53;5064447;28;20370;-80
2022/07/15 00:52:58;;;;;;;5.63;3.83;;;;;;;20.54;86.29;99610.66;5079246;28;20089;-80
2022/07/15 00:55:24;;;;;;;4.68;4.00;;;;;;;20.58;85.64;99600.66;5097446;28;20508;-80
2022/07/15 00:57:55;;;;;;;6.15;3.88;;;;;;;20.62;84.84;99595.53;5114351;28;20035;-80
2022/07/15 01:00:21;;;;;;;5.15;3.90;;;;;;;20.65;84.84;99596.53;5074530;28;20043;-80
2022/07/15 01:02:50;;;;;;;9.50;4.25;;;;;;;20.70;84.74;99595.78;5096626;28;20061;-80
2022/07/15 01:05:18;;;;;;;5.00;4.00;;;;;;;20.68;84.88;99601.13;5098690;28;20443;-80
2022/07/15 01:07:44;;;;;;;5.57;4.25;;;;;;;20.72;84.36;99601.63;5080573;28;20054;-82
2022/07/15 01:10:10;;;;;;;6.68;3.92;;;;;;;20.85;82.70;99596.22;5098207;28;20078;-83
2022/07/15 01:12:40;;;;;;;7.68;4.07;;;;;;;21.08;80.48;99600.47;5094827;28;20059;-80
2022/07/15 01:15:07;;;;;;;5.15;3.80;;;;;;;21.21;79.34;99597.09;5079791;28;20035;-80
2022/07/15 01:17:34;;;;;;;9.38;4.00;;;;;;;21.36;78.35;99609.59;5090985;28;20031;-80
2022/07/15 01:20:00;;;;;;;9.18;4.45;;;;;;;21.50;77.61;99598.47;5073475;28;20039;-80
2022/07/15 01:22:31;;;;;;;5.07;3.78;;;;;;;21.63;76.14;99593.00;5062980;28;20135;-80
2022/07/15 01:24:56;;;;;;;5.63;3.70;;;;;;;21.63;75.64;99605.06;5074474;28;20127;-81
2022/07/15 01:27:26;;;;;;;8.55;3.72;;;;;;;21.68;75.29;99603.47;5078092;28;20449;-83
2022/07/15 01:29:52;;;;;;;7.47;3.63;;;;;;;21.67;75.44;99602.72;5094703;28;20118;-83
2022/07/15 01:32:20;;;;;;;5.20;3.58;;;;;;;21.65;75.31;99596.06;5068723;28;20036;-83
2022/07/15 01:34:48;;;;;;;8.18;3.78;;;;;;;21.61;75.28;99601.22;5068048;28;20463;-83
2022/07/15 01:37:16;;;;;;;9.43;3.42;;;;;;;21.61;75.23;99592.75;5075672;28;20038;-83
2022/07/15 01:39:47;;;;;;;8.90;3.67;;;;;;;21.53;75.63;99577.69;5073238;28;20040;-83
2022/07/15 01:42:13;;;;;;;7.30;3.50;;;;;;;21.46;75.95;99575.41;5075733;28;20035;-83
2022/07/15 01:44:38;;;;;;;6.18;3.83;;;;;;;21.44;76.08;99583.63;5094008;28;20497;-83
2022/07/15 01:47:05;;;;;;;6.63;3.38;;;;;;;21.34;76.24;99598.06;5093462;28;20107;-85
2022/07/15 01:49:33;;;;;;;13.80;3.47;;;;;;;21.27;76.83;99612.69;5059970;28;20039;-82
2022/07/15 01:52:10;;;;;;;6.25;3.30;;;;;;;21.24;76.98;99615.81;5096964;28;20109;-82
2022/07/15 01:54:37;;;;;;;8.70;3.47;;;;;;;21.21;76.81;99620.44;5073889;28;20122;-82
2022/07/15 01:57:03;;;;;;;7.00;3.42;;;;;;;21.15;77.74;99633.06;5071903;28;20123;-82
2022/07/15 01:59:31;;;;;;;8.35;3.30;;;;;;;21.09;78.09;99626.63;5110959;28;20063;-82
2022/07/15 02:01:58;;;;;;;6.85;3.60;;;;;;;21.04;78.20;99636.63;5075780;28;20519;-82
2022/07/15 02:04:25;;;;;;;7.50;3.45;;;;;;;21.05;78.64;99649.47;5055968;28;20085;-82
2022/07/15 02:06:51;;;;;;;7.85;3.70;;;;;;;21.03;78.40;99645.63;5047832;28;20044;-79
2022/07/15 02:09:19;;;;;;;8.32;3.55;;;;;;;20.99;78.56;99634.59;5072320;28;20036;-79
2022/07/15 02:11:47;;;;;;;7.65;3.33;;;;;;;20.95;78.61;99625.63;5070569;28;20036;-80
2022/07/15 02:14:13;;;;;;;6.20;3.47;;;;;;;20.95;78.25;99637.69;5072840;28;20374;-79
2022/07/15 02:16:40;;;;;;;4.65;3.20;;;;;;;20.95;77.92;99611.53;5071263;28;20043;-79
2022/07/15 02:19:10;;;;;;;9.55;3.45;;;;;;;20.98;78.01;99643.59;5073071;28;20036;-79
2022/07/15 02:21:36;;;;;;;7.07;3.10;;;;;;;20.92;77.75;99635.91;5039740;28;20040;-79
2022/07/15 02:24:03;;;;;;;4.88;3.33;;;;;;;20.95;78.30;99651.00;5056482;28;20048;-80
2022/07/15 02:26:28;;;;;;;8.05;3.25;;;;;;;20.90;77.79;99649.00;5071889;28;20048;-80
2022/07/15 02:28:56;;;;;;;4.97;3.42;;;;;;;20.83;78.47;99646.69;5039275;28;20093;-79
2022/07/15 02:31:23;;;;;;;8.15;3.28;;;;;;;20.78;78.44;99641.88;5055547;28;20054;-80
2022/07/15 02:33:49;;;;;;;4.18;3.05;;;;;;;20.79;77.67;99640.56;5056035;28;20036;-80
2022/07/15 02:36:15;;;;;;;6.72;3.10;;;;;;;20.80;78.14;99656.19;5073738;28;20497;-80
2022/07/15 02:38:44;;;;;;;6.88;3.17;;;;;;;20.72;78.21;99639.06;5090458;28;20551;-79
2022/07/15 02:41:12;;;;;;;6.20;3.53;;;;;;;20.74;78.00;99653.41;5079013;28;20043;-80
2022/07/15 02:43:41;;;;;;;8.25;3.30;;;;;;;20.75;77.53;99648.50;5038302;28;20383;-82
2022/07/15 02:46:09;;;;;;;7.55;2.90;;;;;;;20.71;77.65;99653.66;5073875;28;20040;-82
2022/07/15 02:48:36;;;;;;;5.07;2.90;;;;;;;20.67;77.71;99650.31;5089656;28;20517;-83
2022/07/15 02:51:02;;;;;;;4.43;3.28;;;;;;;20.63;77.71;99647.78;5071104;28;20386;-83
2022/07/15 02:53:28;;;;;;;4.20;2.70;;;;;;;20.59;78.07;99655.72;5059208;28;20048;-83
2022/07/15 02:55:58;;;;;;;5.65;3.00;;;;;;;20.60;78.21;99670.59;5067954;28;20035;-83
2022/07/15 02:58:25;;;;;;;6.15;3.20;;;;;;;20.52;78.48;99664.72;5038716;28;20067;-82
2022/07/15 03:00:51;;;;;;;4.95;2.80;;;;;;;20.51;78.90;99680.06;5071886;28;20090;-82
2022/07/15 03:03:17;;;;;;;6.63;2.97;;;;;;;20.46;78.99;99683.69;5072256;28;20044;-80
2022/07/15 03:05:42;;;;;;;3.67;2.65;;;;;;;20.45;79.62;99682.91;5073293;28;20028;-80
2022/07/15 03:08:10;;;;;;;5.10;2.88;;;;;;;20.37;79.50;99679.06;5088145;28;20085;-80
2022/07/15 03:10:36;;;;;;;4.78;2.75;;;;;;;20.41;79.35;99699.31;5070862;28;20118;-81
2022/07/15 03:13:02;;;;;;;4.93;2.60;;;;;;;20.35;79.71;99701.34;5068022;28;20044;-80
2022/07/15 03:15:28;;;;;;;4.53;2.60;;;;;;;20.35;79.81;99700.56;5085675;28;20045;-80
2022/07/15 03:17:53;;;;;;;4.63;2.60;;;;;;;20.35;79.45;99701.34;5072786;28;20416;-80
2022/07/15 03:20:22;;;;;;;5.38;2.50;;;;;;;20.35;79.27;99703.38;5045237;28;20028;-80
2022/07/15 03:22:49;;;;;;;3.83;2.63;;;;;;;20.35;79.85;99695.72;5059803;28;20412;-83
2022/07/15 03:25:14;;;;;;;3.40;2.70;;;;;;;20.30;79.83;99702.09;5093302;28;20101;-82
2022/07/15 03:27:40;;;;;;;3.92;2.45;;;;;;;20.34;79.84;99711.06;5093342;28;20035;-83
2022/07/15 03:30:09;;;;;;;4.13;2.40;;;;;;;20.30;79.96;99715.44;5093252;28;20075;-82
2022/07/15 03:32:35;;;;;;;3.38;2.70;;;;;;;20.27;79.94;99711.56;5092960;28;20469;-83
2022/07/15 03:35:00;;;;;;;4.22;2.40;;;;;;;20.28;79.51;99713.09;5075576;28;20050;-83
2022/07/15 03:37:30;;;;;;;4.15;2.53;;;;;;;20.28;80.07;99726.41;5060494;28;20123;-82
2022/07/15 03:39:55;;;;;;;4.65;2.40;;;;;;;20.28;80.16;99735.63;5075823;28;20131;-80
2022/07/15 03:42:22;;;;;;;4.80;2.50;;;;;;;20.25;80.53;99739.47;5092191;28;20051;-80
2022/07/15 03:44:48;;;;;;;6.13;2.50;;;;;;;20.27;80.50;99738.94;5092900;28;20059;-80
2022/07/15 03:47:13;;;;;;;4.40;2.50;;;;;;;20.27;80.24;99739.72;5075741;28;20572;-80
2022/07/15 03:49:39;;;;;;;6.20;2.90;;;;;;;20.25;80.95;99739.47;5059468;28;20047;-81
2022/07/15 03:52:05;;;;;;;6.20;2.95;;;;;;;20.23;80.96;99735.63;5092373;28;20067;-80
2022/07/15 03:54:34;;;;;;;5.72;2.70;;;;;;;20.20;80.87;99743.03;5092788;28;20036;-82
2022/07/15 03:57:01;;;;;;;3.90;2.47;;;;;;;20.19;80.30;99749.19;5064843;28;20036;-79
2022/07/15 03:59:27;;;;;;;4.32;2.70;;;;;;;20.18;79.64;99759.66;5084006;28;20034;-81
2022/07/15 04:01:53;;;;;;;5.80;2.70;;;;;;;20.22;79.93;99771.44;5069964;28;20043;-81
2022/07/15 04:04:18;;;;;;;4.13;2.65;;;;;;;20.17;79.12;99763.78;5083213;28;20042;-81
2022/07/15 04:06:44;;;;;;;4.95;2.70;;;;;;;20.21;79.31;99778.38;5101297;28;20031;-81
2022/07/15 04:09:10;;;;;;;3.50;2.50;;;;;;;20.21;78.85;99775.56;5069032;28;20494;-82
2022/07/15 04:11:37;;;;;;;4.63;2.60;;;;;;;20.22;78.52;99774.28;5074026;28;20499;-82
2022/07/15 04:14:04;;;;;;;4.63;2.40;;;;;;;20.20;79.43;99771.22;5063365;28;20028;-82
2022/07/15 04:16:30;;;;;;;3.95;2.88;;;;;;;20.23;78.86;99778.63;5070973;28;20117;-82
2022/07/15 04:19:02;;;;;;;4.60;2.70;;;;;;;20.18;79.10;99770.94;5092576;28;20384;-82
2022/07/15 04:21:28;;;;;;;3.90;2.53;;;;;;;20.22;79.21;99770.72;5058611;28;20052;-80
2022/07/15 04:23:53;;;;;;;4.60;2.97;;;;;;;20.22;79.08;99777.09;5063077;28;20043;-80
2022/07/15 04:26:19;;;;;;;4.05;2.80;;;;;;;20.23;78.14;99772.22;5050944;28;20043;-80
2022/07/15 04:28:44;;;;;;;3.92;2.65;;;;;;;20.27;77.88;99761.47;5072543;28;20471;-80
2022/07/15 04:31:11;;;;;;;3.42;2.40;;;;;;;20.21;78.18;99764.31;5076297;28;20494;-79
2022/07/15 04:33:54;;;;;;;4.40;2.78;;;;;;;20.22;77.97;99770.72;5058034;28;20047;-79
2022/07/15 04:36:21;;;;;;;4.30;2.88;;;;;;;20.19;78.33;99783.75;5074212;28;20036;-80
2022/07/15 04:38:48;;;;;;;4.25;2.80;;;;;;;20.18;77.60;99776.56;5055584;28;20497;-81
2022/07/15 04:41:13;;;;;;;4.00;2.80;;;;;;;20.24;78.16;99768.13;5072048;28;20165;-79
2022/07/15 04:43:39;;;;;;;3.53;2.72;;;;;;;20.27;77.30;99753.81;5085047;28;20040;-79
2022/07/15 04:46:04;;;;;;;4.43;2.90;;;;;;;20.32;77.17;99772.78;5105064;28;20050;-80
2022/07/15 04:51:14;;;;;;;4.05;2.83;;;;;;;20.37;76.82;99766.41;5090915;28;20039;-79
2022/07/15 04:53:40;;;;;;;4.95;3.15;;;;;;;20.28;77.46;99786.31;5106467;28;20046;-80
2022/07/15 04:56:06;;;;;;;5.88;3.00;;;;;;;20.19;77.85;99783.75;5053349;28;20063;-80
2022/07/15 04:58:32;;;;;;;3.55;3.10;;;;;;;20.19;78.74;99786.56;5074216;28;20507;-80
2022/07/15 05:00:58;;;;;;;3.53;2.90;;;;;;;20.12;79.17;99787.06;5078032;28;20044;-80
2022/07/15 05:03:25;;;;;;;4.53;3.10;;;;;;;20.08;79.65;99782.97;5063843;28;20134;-81
2022/07/15 05:05:50;;;;;;;4.95;3.20;;;;;;;20.09;80.46;99790.13;5095182;28;20162;-81
2022/07/15 05:08:20;;;;;;;7.50;3.10;;;;;;;20.05;79.85;99796.00;5078233;28;20126;-81
2022/07/15 05:10:51;;;;;;;5.50;3.20;;;;;;;20.12;79.74;99801.16;5060870;28;20404;-80
2022/07/15 05:13:17;;;;;;;7.28;3.45;;;;;;;20.15;80.13;99808.56;5063030;28;20528;-80
2022/07/15 05:15:45;;;;;;;4.72;3.13;;;;;;;20.12;79.97;99823.66;5079071;28;20032;-80
2022/07/15 05:18:21;;;;;;;4.78;3.20;;;;;;;20.05;80.04;99807.28;5091626;28;20181;-80
2022/07/15 05:20:50;;;;;;;5.57;3.42;;;;;;;20.09;79.97;99813.44;5095353;28;20055;-80
2022/07/15 05:23:17;;;;;;;5.93;3.15;;;;;;;20.10;79.98;99819.84;5076161;28;20488;-80
2022/07/15 05:25:46;;;;;;;6.35;3.50;;;;;;;20.20;80.20;99821.91;5072928;28;20058;-81
2022/07/15 05:28:12;;;;;;;5.30;3.08;;;;;;;20.22;79.89;99816.50;5093066;28;20044;-81
2022/07/15 05:30:39;;;;;;;5.55;3.20;;;;;;;20.15;79.69;99819.84;5092507;28;20145;-81
2022/07/15 05:33:06;;;;;;;5.13;3.40;;;;;;;20.09;79.45;99813.44;5090525;28;20070;-80
2022/07/15 05:35:32;;;;;;;6.40;3.45;;;;;;;20.07;79.69;99818.00;5088878;28;20123;-85
2022/07/15 05:37:57;;;;;;;7.10;3.30;;;;;;;19.96;79.62;99835.66;5091573;28;20048;-80
2022/07/15 05:40:30;;;;;;;5.90;3.67;;;;;;;19.87;80.09;99824.59;5077059;28;20024;-80
2022/07/15 05:42:56;;;;;;;6.05;3.40;;;;;;;19.85;80.67;99838.44;5058827;28;20571;-79
2022/07/15 05:45:22;;;;;;;7.40;3.88;;;;;;;19.71;81.23;99834.53;5099752;28;20049;-80
2022/07/15 05:47:55;;;;;;;5.20;4.10;;;;;;;19.66;81.53;99834.50;5076713;28;20047;-80
2022/07/15 05:50:24;;;;;;;6.47;3.88;;;;;;;19.61;82.23;99846.50;5074384;28;20093;-80
2022/07/15 05:52:54;;;;;;;6.70;3.80;;;;;;;19.59;81.94;99829.34;5076897;28;20044;-80
2022/07/15 05:55:20;;;;;;;8.98;4.38;;;;;;;19.54;82.99;99848.50;5065103;28;20520;-85
2022/07/15 05:57:46;;;;;;;6.95;4.10;;;;;;;19.54;83.36;99856.94;5058666;28;20105;-82
2022/07/15 06:00:13;;;;;;;10.50;4.18;;;;;;;19.50;83.49;99864.06;5091579;28;20044;-84
2022/07/15 06:02:44;;;;;;;7.55;4.53;;;;;;;19.49;83.80;99851.31;5112494;28;20047;-84
2022/07/15 06:05:19;;;;;;;9.18;4.50;;;;;;;19.48;84.11;99870.22;5074031;28;20038;-83
2022/07/15 06:07:48;;;;;;;8.25;4.85;;;;;;;19.46;84.45;99886.03;5057284;28;20445;-84
2022/07/15 06:10:17;;;;;;;5.97;4.70;;;;;;;19.45;84.69;99887.34;5073842;28;20040;-83
2022/07/15 06:12:43;;;;;;;7.00;5.53;;;;;;;19.46;84.78;99891.66;5078070;28;20048;-83
2022/07/15 06:15:10;;;;;;;6.72;4.93;;;;;;;19.46;84.58;99888.84;5078176;28;20036;-84
2022/07/15 06:17:36;;;;;;;7.45;5.85;;;;;;;19.46;84.88;99891.66;5093253;28;20084;-83
2022/07/15 06:20:03;;;;;;;10.40;5.20;;;;;;;19.48;85.01;99912.41;5094208;28;20040;-84
2022/07/15 06:22:29;;;;;;;7.72;5.05;;;;;;;19.45;84.79;99909.84;5077308;28;20050;-84
2022/07/15 06:24:54;;;;;;;8.27;5.38;;;;;;;19.42;85.26;99914.41;5060553;28;20035;-84
2022/07/15 06:27:21;;;;;;;7.70;5.22;;;;;;;19.46;85.54;99912.13;5095633;28;20047;-84
2022/07/15 06:29:50;;;;;;;7.75;5.32;;;;;;;19.41;86.13;99921.25;5061652;28;20458;-84
2022/07/15 06:32:17;;;;;;;11.52;5.47;;;;;;;19.44;86.89;99922.34;5094864;28;20065;-84
2022/07/15 06:34:43;;;;;;;9.10;5.10;;;;;;;19.49;86.78;99918.81;5077267;28;20492;-81
2022/07/15 06:37:08;;;;;;;8.90;6.10;;;;;;;19.42;86.67;99920.03;5094519;28;20036;-84
2022/07/15 06:39:34;;;;;;;7.85;5.85;;;;;;;19.55;86.75;99925.25;5094400;28;20377;-85
2022/07/15 06:42:01;;;;;;;11.15;6.38;;;;;;;19.61;86.26;99914.03;5077607;28;20048;-85
2022/07/15 06:44:27;;;;;;;11.52;6.38;;;;;;;19.52;85.88;99921.41;5076613;28;20096;-85
2022/07/15 06:46:55;;;;;;;10.00;6.45;;;;;;;19.55;86.35;99928.81;5077391;28;20035;-85
2022/07/15 06:49:21;;;;;;;11.27;6.97;;;;;;;19.55;85.63;99945.72;5060022;28;20044;-85
2022/07/15 06:51:47;;;;;;;10.43;7.47;;;;;;;19.45;85.06;99935.91;5093903;28;20114;-85
2022/07/15 06:54:12;;;;;;;10.40;7.43;;;;;;;19.49;85.44;99941.31;5073220;28;20459;-81
2022/07/15 06:56:39;;;;;;;8.23;7.30;;;;;;;19.50;85.12;99942.84;5056763;28;20028;-81
2022/07/15 06:59:04;;;;;;;11.02;7.65;;;;;;;19.39;85.06;99951.94;5090385;28;20036;-81
2022/07/15 07:01:50;;;;;;;9.88;7.55;;;;;;;19.36;85.77;99940.94;5047224;28;20028;-81
2022/07/15 07:04:22;;;;;;;9.80;7.38;;;;;;;19.31;85.97;99950.88;5077639;28;20070;-81
2022/07/15 07:06:49;;;;;;;10.57;7.40;;;;;;;19.30;86.68;99957.75;5076772;28;20138;-81
2022/07/15 07:09:14;;;;;;;9.88;8.02;;;;;;;19.26;87.04;99967.69;5076408;28;20107;-81
2022/07/15 07:11:40;;;;;;;10.80;7.60;;;;;;;19.31;86.67;99979.00;5076266;28;20044;-81
2022/07/15 07:14:06;;;;;;;10.93;7.50;;;;;;;19.36;86.89;99983.13;5092490;28;20035;-81
2022/07/15 07:16:32;;;;;;;9.07;7.38;;;;;;;19.47;87.02;99991.69;5093183;28;20121;-81
2022/07/15 07:18:59;;;;;;;8.05;7.00;;;;;;;19.38;86.68;100001.03;5076337;28;20036;-81
2022/07/15 07:21:24;;;;;;;9.98;7.55;;;;;;;19.51;86.69;100001.44;5111239;28;20039;-81
2022/07/15 07:23:50;;;;;;;7.80;7.00;;;;;;;19.54;86.43;100006.06;5076068;28;20046;-81
2022/07/15 07:26:16;;;;;;;8.35;7.53;;;;;;;19.68;85.64;99997.97;5093155;28;20112;-79
2022/07/15 07:28:42;;;;;;;11.70;7.25;;;;;;;19.65;84.77;100001.78;5072420;28;20040;-80
2022/07/15 07:31:08;;;;;;;8.57;7.68;;;;;;;19.69;84.79;99993.91;5091473;28;20110;-82
2022/07/15 07:33:34;;;;;;;11.52;7.55;;;;;;;19.62;83.95;99994.34;5059121;28;20044;-81
2022/07/15 07:36:00;;;;;;;12.80;7.22;;;;;;;19.52;84.85;100000.16;5076295;28;20044;-80
2022/07/15 07:38:26;;;;;;;8.60;7.75;;;;;;;19.62;84.93;100012.00;5092970;28;20043;-80
2022/07/15 07:40:52;;;;;;;7.75;6.93;;;;;;;19.65;85.08;100005.38;5093001;28;20377;-80
2022/07/15 07:43:18;;;;;;;7.78;6.97;;;;;;;19.76;84.21;100024.38;5110678;28;20047;-80
2022/07/15 07:45:45;;;;;;;11.77;7.30;;;;;;;19.82;84.23;100020.31;5092857;28;20044;-81
2022/07/15 07:48:10;;;;;;;9.07;6.70;;;;;;;19.92;84.41;100024.50;5111014;28;20028;-81
2022/07/15 07:50:36;;;;;;;8.98;6.85;;;;;;;20.07;83.67;100023.56;5092594;28;20119;-84
2022/07/15 07:53:01;;;;;;;7.57;6.57;;;;;;;20.26;82.78;100031.09;5076079;28;20071;-84
2022/07/15 07:55:27;;;;;;;9.70;6.97;;;;;;;20.46;82.51;100039.41;5076032;28;20028;-83
2022/07/15 07:57:55;;;;;;;8.20;7.22;;;;;;;20.52;81.08;100047.91;5092951;28;20047;-84
2022/07/15 08:00:22;;;;;;;7.93;6.70;;;;;;;20.60;79.78;100048.19;5110628;28;20531;-85
2022/07/15 08:02:48;;;;;;;11.32;6.82;;;;;;;20.61;79.44;100061.03;5058900;28;20063;-84
2022/07/15 08:05:14;;;;;;;8.95;7.20;;;;;;;20.74;79.67;100061.34;5059086;28;20134;-84
2022/07/15 08:07:41;;;;;;;8.60;6.70;;;;;;;20.77;79.73;100060.31;5076018;28;20101;-84
2022/07/15 08:10:08;;;;;;;8.95;6.75;;;;;;;21.06;79.06;100068.38;5059170;28;20574;-84
2022/07/15 08:12:33;;;;;;;7.55;6.78;;;;;;;21.05;77.93;100064.00;5092223;28;20063;-82
2022/07/15 08:14:59;;;;;;;12.52;7.53;;;;;;;20.85;79.01;100070.59;5105828;28;20120;-80
2022/07/15 08:17:25;;;;;;;7.40;6.63;;;;;;;20.92;78.42;100064.47;5064107;28;20189;-80
2022/07/15 08:19:51;;;;;;;8.40;6.53;;;;;;;20.70;79.01;100077.72;5098164;28;20126;-81
2022/07/15 08:22:17;;;;;;;8.15;6.60;;;;;;;20.83;79.47;100089.28;5099916;28;20059;-81
2022/07/15 08:24:45;;;;;;;9.27;6.80;;;;;;;20.86;79.92;100083.44;5084014;28;20024;-81
2022/07/15 08:27:10;;;;;;;10.02;6.32;;;;;;;20.75;78.70;100082.59;5089558;28;20051;-85
2022/07/15 08:29:36;;;;;;;10.77;6.80;;;;;;;20.90;77.36;100092.41;5089741;28;20466;-81
2022/07/15 08:32:01;;;;;;;10.85;6.65;;;;;;;20.97;77.63;100096.00;5090350;28;20027;-80
2022/07/15 08:34:27;;;;;;;8.68;6.70;;;;;;;20.84;79.85;100094.44;5095844;28;20043;-81
2022/07/15 08:36:52;;;;;;;7.35;6.05;;;;;;;20.92;78.75;100094.72;5114686;28;20035;-81
2022/07/15 08:39:18;;;;;;;9.80;6.75;;;;;;;20.81;78.45;100091.84;5096174;28;20493;-81
2022/07/15 08:41:45;;;;;;;11.75;6.07;;;;;;;20.77;79.08;100091.31;5096414;28;20370;-80
2022/07/15 08:44:11;;;;;;;8.23;5.90;;;;;;;21.08;79.44;100093.22;5114356;28;20039;-80
2022/07/15 08:46:36;;;;;;;7.30;6.15;;;;;;;21.27;76.57;100092.28;5096719;28;20039;-81
2022/07/15 08:49:12;;;;;;;6.65;5.80;;;;;;;21.34;75.60;100094.63;5096070;28;20031;-84
2022/07/15 08:51:42;;;;;;;8.05;5.63;;;;;;;21.34;72.99;100094.63;5096210;28;20062;-85
2022/07/15 08:54:08;;;;;;;7.30;5.63;;;;;;;21.35;74.13;100101.78;5114568;28;20454;-83
2022/07/15 08:56:35;;;;;;;7.90;5.95;;;;;;;21.21;73.13;100102.78;5095792;28;20044;-84
2022/07/15 08:59:02;;;;;;;6.93;5.82;;;;;;;21.11;73.04;100109.91;5096042;28;20044;-84
2022/07/15 09:01:28;;;;;;;8.75;5.97;;;;;;;21.10;73.32;100136.59;5096082;28;20101;-83
2022/07/15 09:03:54;;;;;;;6.80;5.82;;;;;;;21.23;73.25;100142.53;5095774;28;20044;-83
2022/07/15 09:06:33;;;;;;;9.32;6.25;;;;;;;21.36;74.50;100128.72;5078877;28;20123;-81
2022/07/15 09:08:58;;;;;;;9.20;5.95;;;;;;;21.66;72.68;100137.50;5095787;28;20119;-84
2022/07/15 09:11:28;;;;;;;6.90;6.20;;;;;;;21.70;73.44;100132.38;5078601;28;20480;-84
2022/07/15 09:13:54;;;;;;;7.93;5.78;;;;;;;21.63;70.85;100134.94;5114079;28;20488;-85
2022/07/15 09:16:20;;;;;;;12.13;6.40;;;;;;;21.64;71.58;100133.66;5078906;28;20036;-84
2022/07/15 09:18:48;;;;;;;11.10;6.00;;;;;;;21.77;71.83;100133.91;5113921;28;20410;-84
2022/07/15 09:21:21;;;;;;;7.25;6.43;;;;;;;21.81;71.83;100142.91;5075475;28;20040;-84
2022/07/15 09:23:48;;;;;;;7.93;5.97;;;;;;;21.75;70.65;100145.75;5075528;28;20093;-85
2022/07/15 09:26:32;;;;;;;7.78;6.15;;;;;;;21.58;73.29;100155.47;5075783;28;20454;-81
2022/07/15 09:28:59;;;;;;;6.90;6.18;;;;;;;21.72;72.94;100141.09;5053832;28;20040;-82
2022/07/15 09:34:16;;;;;;;10.48;6.30;;;;;;;21.98;68.58;100137.31;5084213;28;20040;-82
2022/07/15 09:36:57;;;;;;;9.35;5.90;;;;;;;22.42;69.68;100145.75;5085374;28;20153;-82
2022/07/15 09:39:24;;;;;;;9.32;5.47;;;;;;;22.80;67.04;100144.16;5085709;28;20044;-82
2022/07/15 09:41:51;;;;;;;10.73;5.53;;;;;;;22.65;64.33;100140.81;5092552;28;20036;-81
2022/07/15 09:44:25;;;;;;;9.30;5.32;;;;;;;22.75;63.59;100137.22;5103690;28;20081;-85
2022/07/15 09:46:57;;;;;;;8.48;5.90;;;;;;;23.09;65.95;100131.44;5070238;28;20130;-81
2022/07/15 09:49:22;;;;;;;7.95;4.95;;;;;;;23.18;63.14;100131.91;5082365;28;20048;-81
2022/07/15 09:51:48;;;;;;;6.35;5.35;;;;;;;23.03;62.69;100137.13;5110368;28;20039;-82
2022/07/15 09:54:13;;;;;;;8.32;5.47;;;;;;;23.05;64.25;100126.03;5078013;28;20048;-82
2022/07/15 09:56:40;;;;;;;15.38;5.07;;;;;;;22.82;60.77;100127.41;5087921;28;20059;-81
2022/07/15 09:59:07;;;;;;;7.38;4.32;;;;;;;22.72;59.78;100124.13;5088116;28;20053;-81
2022/07/15 10:01:33;;;;;;;5.47;4.65;;;;;;;22.82;61.27;100132.31;5087387;28;20070;-85
2022/07/15 10:03:59;;;;;;;6.38;4.78;;;;;;;22.55;59.54;100133.91;5080869;28;20485;-82
2022/07/15 10:06:27;;;;;;;8.25;4.90;;;;;;;22.51;61.12;100130.56;5065399;28;20523;-81
2022/07/15 10:08:53;;;;;;;8.90;5.10;;;;;;;22.47;61.10;100127.25;5086663;28;20531;-81
2022/07/15 10:11:19;;;;;;;9.88;5.20;;;;;;;22.51;62.16;100136.22;5087925;28;20442;-81
2022/07/15 10:14:05;;;;;;;7.30;5.13;;;;;;;22.53;60.82;100139.28;5079419;28;20046;-81
2022/07/15 10:16:46;;;;;;;7.10;4.90;;;;;;;22.44;61.80;100137.53;5069123;28;20042;-81
2022/07/15 10:19:49;;;;;;;7.18;4.60;;;;;;;22.29;60.94;100134.19;5085697;28;20673;-82
2022/07/15 10:22:18;;;;;;;8.07;4.50;;;;;;;22.07;62.00;100142.69;5064907;28;20097;-83
2022/07/15 10:25:07;;;;;;;6.85;4.82;;;;;;;22.04;62.62;100138.09;5083693;28;20308;-84
2022/07/15 10:28:01;;;;;;;7.93;4.72;;;;;;;22.03;62.09;100148.63;5084312;28;20134;-84
2022/07/15 10:30:26;;;;;;;8.50;5.82;;;;;;;22.09;62.18;100149.38;5086372;28;20071;-85
2022/07/15 10:33:10;;;;;;;9.93;5.97;;;;;;;22.04;61.29;100155.78;5079391;28;20066;-83
2022/07/15 10:35:43;;;;;;;7.53;5.38;;;;;;;22.23;61.46;100156.81;5070634;28;20496;-85
2022/07/15 10:38:30;;;;;;;7.72;4.97;;;;;;;21.68;62.61;100151.09;5103131;28;20122;-85
2022/07/15 10:41:12;;;;;;;9.25;5.15;;;;;;;21.72;63.00;100148.78;5101476;28;20485;-81
2022/07/15 10:43:45;;;;;;;7.38;5.10;;;;;;;21.97;63.34;100139.34;5085346;28;20040;-81
2022/07/15 10:46:17;;;;;;;9.52;5.32;;;;;;;21.99;63.15;100148.09;5084487;28;20045;-82
2022/07/15 10:48:48;;;;;;;8.35;5.53;;;;;;;21.78;64.15;100141.13;5102772;28;20398;-82
2022/07/15 10:51:36;;;;;;;9.82;4.88;;;;;;;21.81;65.10;100145.72;5073081;28;20032;-82
2022/07/15 10:54:10;;;;;;;5.88;4.40;;;;;;;21.81;64.30;100143.69;5084399;28;20071;-82
2022/07/15 10:56:36;;;;;;;6.53;4.72;;;;;;;21.74;64.36;100146.25;5106479;27;20047;-82
2022/07/15 10:59:15;;;;;;;8.68;4.78;;;;;;;21.81;63.80;100151.38;5106038;28;20067;-81
2022/07/15 11:01:43;;;;;;;7.30;4.90;;;;;;;22.22;62.52;100146.81;5069764;28;20036;-85
2022/07/15 11:04:19;;;;;;;7.85;4.43;;;;;;;22.58;64.19;100152.66;5097508;28;20091;-85
2022/07/15 11:07:03;;;;;;;5.78;4.55;;;;;;;22.90;60.03;100151.03;5067630;28;20048;-86
2022/07/15 11:09:53;;;;;;;7.47;4.53;;;;;;;22.99;58.88;100142.28;5102216;28;20091;-83
2022/07/15 11:12:29;;;;;;;5.38;4.18;;;;;;;22.82;59.73;100152.88;5061187;28;20400;-84
2022/07/15 11:14:57;;;;;;;7.80;4.88;;;;;;;22.29;60.43;100149.09;5081267;28;20052;-84
2022/07/15 11:17:28;;;;;;;5.95;4.38;;;;;;;22.45;60.72;100155.25;5059316;28;20063;-84
2022/07/15 11:19:59;;;;;;;8.38;4.50;;;;;;;22.21;59.90;100142.44;5091141;28;20054;-80
2022/07/15 11:22:28;;;;;;;7.35;4.30;;;;;;;21.97;62.28;100155.53;5083167;28;20059;-84
2022/07/15 11:24:55;;;;;;;6.55;4.70;;;;;;;22.20;61.57;100146.53;5099088;28;20101;-84
2022/07/15 11:27:22;;;;;;;13.38;5.70;;;;;;;22.30;61.32;100150.66;5068582;28;20046;-84
2022/07/15 11:30:02;;;;;;;12.68;4.88;;;;;;;22.25;61.04;100157.06;5085084;28;20027;-84
2022/07/15 11:32:33;;;;;;;6.72;5.20;;;;;;;22.02;61.93;100155.53;5065603;28;20100;-85
2022/07/15 11:35:00;;;;;;;6.38;4.72;;;;;;;22.01;62.10;100156.81;5100879;28;20428;-85
2022/07/15 11:37:27;;;;;;;9.82;4.95;;;;;;;21.85;61.50;100155.50;5094914;28;20434;-85
2022/07/15 11:44:29;;;;;;;8.57;4.60;;;;;;;21.70;63.03;100148.56;5084078;28;20030;-85